sensor_id;sensor_type;location;lat;lon;timestamp;pressure;altitude;pressure_sealevel;temperature;humidity
64713;BME280;51140;45.340;5.980;2023-04-09T00:00:31;98480.97;;;6.68;100.00
64713;BME280;51140;45.340;5.980;2023-04-09T00:02:56;98491.25;;;6.69;100.00
64713;BME280;51140;45.340;5.980;2023-04-09T00:05:22;98478.66;;;6.58;100.00
64713;BME280;51140;45.340;5.980;2023-04-09T00:07:47;98472.63;;;6.58;100.00
64713;BME280;51140;45.340;5.980;2023-04-09T00:10:12;98481.09;;;6.63;100.00
64713;BME280;51140;45.340;5.980;2023-04-09T00:12:38;98474.47;;;6.54;100.00
64713;BME280;51140;45.340;5.980;2023-04-09T00:15:04;98467.78;;;6.47;100.00
64713;BME280;51140;45.340;5.980;2023-04-09T00:17:29;98455.88;;;6.42;100.00
64713;BME280;51140;45.340;5.980;2023-04-09T00:19:54;98443.91;;;6.38;100.00
64713;BME280;51140;45.340;5.980;2023-04-09T00:22:20;98437.03;;;6.37;100.00
64713;BME280;51140;45.340;5.980;2023-04-09T00:24:45;98428.38;;;6.38;100.00
64713;BME280;51140;45.340;5.980;2023-04-09T00:27:11;98433.50;;;6.41;100.00
64713;BME280;51140;45.340;5.980;2023-04-09T00:29:36;98424.19;;;6.34;100.00
64713;BME280;51140;45.340;5.980;2023-04-09T00:32:01;98426.78;;;6.34;100.00
64713;BME280;51140;45.340;5.980;2023-04-09T00:34:27;98411.59;;;6.23;100.00
64713;BME280;51140;45.340;5.980;2023-04-09T00:36:52;98384.88;;;6.22;100.00
64713;BME280;51140;45.340;5.980;2023-04-09T00:39:18;98359.16;;;6.18;100.00
64713;BME280;51140;45.340;5.980;2023-04-09T00:41:43;98353.22;;;6.14;100.00
64713;BME280;51140;45.340;5.980;2023-04-09T00:44:08;98355.81;;;6.14;100.00
64713;BME280;51140;45.340;5.980;2023-04-09T00:46:34;98356.00;;;6.08;100.00
64713;BME280;51140;45.340;5.980;2023-04-09T00:48:59;98322.69;;;5.97;100.00
64713;BME280;51140;45.340;5.980;2023-04-09T00:51:25;98294.13;;;6.02;100.00
64713;BME280;51140;45.340;5.980;2023-04-09T00:53:52;98295.72;;;6.06;100.00
64713;BME280;51140;45.340;5.980;2023-04-09T00:56:17;98292.75;;;5.90;100.00
64713;BME280;51140;45.340;5.980;2023-04-09T00:58:43;98297.47;;;6.06;100.00
64713;BME280;51140;45.340;5.980;2023-04-09T01:01:09;98284.69;;;6.00;100.00
64713;BME280;51140;45.340;5.980;2023-04-09T01:03:35;98272.81;;;5.94;100.00
64713;BME280;51140;45.340;5.980;2023-04-09T01:06:07;98268.69;;;5.87;100.00
64713;BME280;51140;45.340;5.980;2023-04-09T01:16:52;98238.84;;;5.77;100.00
64713;BME280;51140;45.340;5.980;2023-04-09T01:21:58;98215.59;;;5.77;100.00
64713;BME280;51140;45.340;5.980;2023-04-09T01:25:06;98155.41;;;5.73;100.00
64713;BME280;51140;45.340;5.980;2023-04-09T01:27:42;98142.69;;;5.67;100.00
64713;BME280;51140;45.340;5.980;2023-04-09T01:30:09;98128.97;;;5.65;100.00
64713;BME280;51140;45.340;5.980;2023-04-09T01:32:37;98117.06;;;5.59;100.00
64713;BME280;51140;45.340;5.980;2023-04-09T01:35:03;98111.03;;;5.59;100.00
64713;BME280;51140;45.340;5.980;2023-04-09T01:37:30;98118.53;;;5.68;100.00
64713;BME280;51140;45.340;5.980;2023-04-09T01:39:56;98105.94;;;5.57;100.00
64713;BME280;51140;45.340;5.980;2023-04-09T01:42:23;98102.38;;;5.61;100.00
64713;BME280;51140;45.340;5.980;2023-04-09T01:44:49;98103.75;;;5.72;100.00
64713;BME280;51140;45.340;5.980;2023-04-09T01:47:16;98105.56;;;5.70;100.00
64713;BME280;51140;45.340;5.980;2023-04-09T01:49:42;98107.81;;;5.79;100.00
64713;BME280;51140;45.340;5.980;2023-04-09T01:52:08;98113.75;;;5.82;100.00
64713;BME280;51140;45.340;5.980;2023-04-09T01:54:34;98108.69;;;5.79;100.00
64713;BME280;51140;45.340;5.980;2023-04-09T01:56:59;98104.56;;;5.74;100.00
64713;BME280;51140;45.340;5.980;2023-04-09T01:59:25;98114.19;;;5.69;100.00
64713;BME280;51140;45.340;5.980;2023-04-09T02:01:59;98109.94;;;5.68;100.00
64713;BME280;51140;45.340;5.980;2023-04-09T02:04:39;98108.94;;;5.72;100.00
64713;BME280;51140;45.340;5.980;2023-04-09T02:09:35;98112.31;;;5.74;100.00
64713;BME280;51140;45.340;5.980;2023-04-09T02:12:03;98118.38;;;5.73;100.00
64713;BME280;51140;45.340;5.980;2023-04-09T02:14:31;98117.72;;;5.66;100.00
64713;BME280;51140;45.340;5.980;2023-04-09T02:16:59;98115.69;;;5.76;100.00
64713;BME280;51140;45.340;5.980;2023-04-09T02:19:37;98116.47;;;5.78;100.00
64713;BME280;51140;45.340;5.980;2023-04-09T02:22:03;98113.16;;;5.74;100.00
64713;BME280;51140;45.340;5.980;2023-04-09T02:24:29;98112.63;;;5.64;100.00
64713;BME280;51140;45.340;5.980;2023-04-09T02:26:54;98115.56;;;5.52;100.00
64713;BME280;51140;45.340;5.980;2023-04-09T02:29:20;98109.84;;;5.43;100.00
64713;BME280;51140;45.340;5.980;2023-04-09T02:31:45;98108.59;;;5.28;100.00
64713;BME280;51140;45.340;5.980;2023-04-09T02:34:10;98101.84;;;5.24;100.00
64713;BME280;51140;45.340;5.980;2023-04-09T02:36:36;98104.28;;;5.28;100.00
64713;BME280;51140;45.340;5.980;2023-04-09T02:39:01;98102.22;;;5.40;100.00
64713;BME280;51140;45.340;5.980;2023-04-09T02:41:26;98101.22;;;5.44;100.00
64713;BME280;51140;45.340;5.980;2023-04-09T02:43:52;98091.53;;;5.50;100.00
64713;BME280;51140;45.340;5.980;2023-04-09T02:46:17;98105.44;;;5.46;100.00
64713;BME280;51140;45.340;5.980;2023-04-09T02:48:42;98095.91;;;5.48;100.00
64713;BME280;51140;45.340;5.980;2023-04-09T02:51:08;98093.47;;;5.44;100.00
64713;BME280;51140;45.340;5.980;2023-04-09T02:53:33;98094.50;;;5.38;100.00
64713;BME280;51140;45.340;5.980;2023-04-09T02:55:58;98099.78;;;5.61;100.00
64713;BME280;51140;45.340;5.980;2023-04-09T02:58:24;98118.16;;;5.79;100.00
64713;BME280;51140;45.340;5.980;2023-04-09T03:00:49;98128.97;;;5.91;100.00
64713;BME280;51140;45.340;5.980;2023-04-09T03:03:15;98138.78;;;5.80;100.00
64713;BME280;51140;45.340;5.980;2023-04-09T03:05:40;98161.41;;;5.74;100.00
64713;BME280;51140;45.340;5.980;2023-04-09T03:08:05;98153.97;;;5.64;100.00
64713;BME280;51140;45.340;5.980;2023-04-09T03:10:31;98150.75;;;5.56;100.00
64713;BME280;51140;45.340;5.980;2023-04-09T03:12:56;98140.81;;;5.44;100.00
64713;BME280;51140;45.340;5.980;2023-04-09T03:15:21;98130.31;;;5.49;100.00
64713;BME280;51140;45.340;5.980;2023-04-09T03:17:47;98137.78;;;5.58;100.00
64713;BME280;51140;45.340;5.980;2023-04-09T03:20:12;98136.81;;;5.62;100.00
64713;BME280;51140;45.340;5.980;2023-04-09T03:22:38;98144.47;;;5.65;100.00
64713;BME280;51140;45.340;5.980;2023-04-09T03:25:04;98165.03;;;5.68;100.00
64713;BME280;51140;45.340;5.980;2023-04-09T03:27:31;98171.16;;;5.65;100.00
64713;BME280;51140;45.340;5.980;2023-04-09T03:29:56;98168.97;;;5.52;100.00
64713;BME280;51140;45.340;5.980;2023-04-09T03:32:22;98165.78;;;5.44;100.00
64713;BME280;51140;45.340;5.980;2023-04-09T03:34:47;98166.13;;;5.33;100.00
64713;BME280;51140;45.340;5.980;2023-04-09T03:37:12;98152.97;;;5.41;100.00
64713;BME280;51140;45.340;5.980;2023-04-09T03:39:38;98153.22;;;5.33;100.00
64713;BME280;51140;45.340;5.980;2023-04-09T03:42:03;98149.84;;;5.31;100.00
64713;BME280;51140;45.340;5.980;2023-04-09T03:44:28;98144.97;;;5.22;100.00
64713;BME280;51140;45.340;5.980;2023-04-09T03:46:54;98129.72;;;5.13;100.00
64713;BME280;51140;45.340;5.980;2023-04-09T03:49:19;98115.22;;;5.09;100.00
64713;BME280;51140;45.340;5.980;2023-04-09T03:51:45;98123.44;;;5.21;100.00
64713;BME280;51140;45.340;5.980;2023-04-09T03:54:10;98121.38;;;5.32;100.00
64713;BME280;51140;45.340;5.980;2023-04-09T03:56:36;98135.84;;;5.38;100.00
64713;BME280;51140;45.340;5.980;2023-04-09T03:59:01;98137.63;;;5.36;100.00
64713;BME280;51140;45.340;5.980;2023-04-09T04:01:26;98138.00;;;5.24;100.00
64713;BME280;51140;45.340;5.980;2023-04-09T04:03:52;98142.47;;;5.17;100.00
64713;BME280;51140;45.340;5.980;2023-04-09T04:06:17;98137.16;;;5.23;100.00
64713;BME280;51140;45.340;5.980;2023-04-09T04:08:42;98155.50;;;5.42;100.00
64713;BME280;51140;45.340;5.980;2023-04-09T04:11:08;98155.66;;;5.38;100.00
64713;BME280;51140;45.340;5.980;2023-04-09T04:13:34;98161.00;;;5.31;100.00
64713;BME280;51140;45.340;5.980;2023-04-09T04:15:59;98173.97;;;5.30;100.00
64713;BME280;51140;45.340;5.980;2023-04-09T04:18:24;98164.00;;;5.18;100.00
64713;BME280;51140;45.340;5.980;2023-04-09T04:20:50;98158.81;;;5.18;100.00
64713;BME280;51140;45.340;5.980;2023-04-09T04:23:15;98171.13;;;5.10;100.00
64713;BME280;51140;45.340;5.980;2023-04-09T04:25:41;98163.28;;;5.13;100.00
64713;BME280;51140;45.340;5.980;2023-04-09T04:28:06;98165.25;;;5.04;100.00
64713;BME280;51140;45.340;5.980;2023-04-09T04:30:32;98153.50;;;4.94;100.00
64713;BME280;51140;45.340;5.980;2023-04-09T04:32:57;98150.97;;;4.93;100.00
64713;BME280;51140;45.340;5.980;2023-04-09T04:35:23;98146.00;;;4.87;100.00
64713;BME280;51140;45.340;5.980;2023-04-09T04:37:49;98144.50;;;4.78;100.00
64713;BME280;51140;45.340;5.980;2023-04-09T04:40:15;98149.03;;;4.70;100.00
64713;BME280;51140;45.340;5.980;2023-04-09T04:42:41;98148.31;;;4.65;100.00
64713;BME280;51140;45.340;5.980;2023-04-09T04:45:07;98133.91;;;4.58;100.00
64713;BME280;51140;45.340;5.980;2023-04-09T04:47:32;98122.56;;;4.63;100.00
64713;BME280;51140;45.340;5.980;2023-04-09T04:49:58;98130.31;;;4.63;100.00
64713;BME280;51140;45.340;5.980;2023-04-09T04:52:23;98127.84;;;4.59;100.00
64713;BME280;51140;45.340;5.980;2023-04-09T04:54:49;98123.66;;;4.55;100.00
64713;BME280;51140;45.340;5.980;2023-04-09T04:57:14;98119.44;;;4.52;100.00
64713;BME280;51140;45.340;5.980;2023-04-09T04:59:40;98119.50;;;4.51;100.00
64713;BME280;51140;45.340;5.980;2023-04-09T05:02:06;98122.19;;;4.46;100.00
64713;BME280;51140;45.340;5.980;2023-04-09T05:04:32;98115.31;;;4.47;100.00
64713;BME280;51140;45.340;5.980;2023-04-09T05:06:57;98102.22;;;4.53;100.00
64713;BME280;51140;45.340;5.980;2023-04-09T05:09:22;98097.91;;;4.53;100.00
64713;BME280;51140;45.340;5.980;2023-04-09T05:11:48;98112.50;;;4.54;100.00
64713;BME280;51140;45.340;5.980;2023-04-09T05:14:13;98116.72;;;4.57;100.00
64713;BME280;51140;45.340;5.980;2023-04-09T05:16:39;98111.63;;;4.55;100.00
64713;BME280;51140;45.340;5.980;2023-04-09T05:19:04;98109.09;;;4.54;100.00
64713;BME280;51140;45.340;5.980;2023-04-09T05:21:29;98096.19;;;4.54;100.00
64713;BME280;51140;45.340;5.980;2023-04-09T05:23:56;98099.66;;;4.53;100.00
64713;BME280;51140;45.340;5.980;2023-04-09T05:26:21;98101.97;;;4.62;100.00
64713;BME280;51140;45.340;5.980;2023-04-09T05:28:47;98099.47;;;4.59;100.00
64713;BME280;51140;45.340;5.980;2023-04-09T05:31:12;98114.47;;;4.76;100.00
64713;BME280;51140;45.340;5.980;2023-04-09T05:33:40;98117.13;;;5.02;100.00
64713;BME280;51140;45.340;5.980;2023-04-09T05:36:05;98127.03;;;4.88;100.00
64713;BME280;51140;45.340;5.980;2023-04-09T05:38:31;98126.38;;;4.81;100.00
64713;BME280;51140;45.340;5.980;2023-04-09T05:40:56;98134.81;;;4.86;100.00
64713;BME280;51140;45.340;5.980;2023-04-09T05:43:22;98141.91;;;4.78;100.00
64713;BME280;51140;45.340;5.980;2023-04-09T05:45:47;98142.00;;;4.75;100.00
64713;BME280;51140;45.340;5.980;2023-04-09T05:48:13;98154.91;;;4.75;100.00
64713;BME280;51140;45.340;5.980;2023-04-09T05:50:38;98148.13;;;4.71;100.00
64713;BME280;51140;45.340;5.980;2023-04-09T05:53:04;98149.00;;;4.71;100.00
64713;BME280;51140;45.340;5.980;2023-04-09T05:55:32;98154.81;;;4.78;100.00
64713;BME280;51140;45.340;5.980;2023-04-09T05:57:58;98146.38;;;4.73;100.00
64713;BME280;51140;45.340;5.980;2023-04-09T06:00:24;98139.41;;;4.75;100.00
64713;BME280;51140;45.340;5.980;2023-04-09T06:02:50;98134.22;;;4.77;100.00
64713;BME280;51140;45.340;5.980;2023-04-09T06:05:15;98123.69;;;4.84;100.00
64713;BME280;51140;45.340;5.980;2023-04-09T06:07:40;98122.81;;;4.85;100.00
64713;BME280;51140;45.340;5.980;2023-04-09T06:10:07;98110.75;;;4.86;100.00
64713;BME280;51140;45.340;5.980;2023-04-09T06:12:35;98116.66;;;4.89;100.00
64713;BME280;51140;45.340;5.980;2023-04-09T06:15:00;98127.97;;;4.85;100.00
64713;BME280;51140;45.340;5.980;2023-04-09T06:17:27;98126.31;;;4.83;100.00
64713;BME280;51140;45.340;5.980;2023-04-09T06:19:52;98117.50;;;4.90;100.00
64713;BME280;51140;45.340;5.980;2023-04-09T06:22:17;98116.44;;;4.97;100.00
64713;BME280;51140;45.340;5.980;2023-04-09T06:24:43;98114.88;;;4.91;100.00
64713;BME280;51140;45.340;5.980;2023-04-09T06:27:08;98118.34;;;4.90;100.00
64713;BME280;51140;45.340;5.980;2023-04-09T06:29:33;98117.28;;;4.97;100.00
64713;BME280;51140;45.340;5.980;2023-04-09T06:31:59;98121.25;;;5.08;100.00
64713;BME280;51140;45.340;5.980;2023-04-09T06:34:25;98118.59;;;5.11;100.00
64713;BME280;51140;45.340;5.980;2023-04-09T06:36:50;98114.97;;;5.16;100.00
64713;BME280;51140;45.340;5.980;2023-04-09T06:39:15;98127.94;;;5.15;100.00
64713;BME280;51140;45.340;5.980;2023-04-09T06:41:41;98127.94;;;5.15;100.00
64713;BME280;51140;45.340;5.980;2023-04-09T06:44:06;98127.97;;;5.13;100.00
64713;BME280;51140;45.340;5.980;2023-04-09T06:46:31;98118.34;;;5.18;100.00
64713;BME280;51140;45.340;5.980;2023-04-09T06:48:57;98108.03;;;5.18;100.00
64713;BME280;51140;45.340;5.980;2023-04-09T06:51:22;98117.47;;;5.19;100.00
64713;BME280;51140;45.340;5.980;2023-04-09T06:53:47;98124.25;;;5.23;100.00
64713;BME280;51140;45.340;5.980;2023-04-09T06:56:13;98125.88;;;5.26;100.00
64713;BME280;51140;45.340;5.980;2023-04-09T06:58:39;98130.88;;;5.32;100.00
64713;BME280;51140;45.340;5.980;2023-04-09T07:01:05;98129.81;;;5.38;100.00
64713;BME280;51140;45.340;5.980;2023-04-09T07:03:30;98133.09;;;5.43;100.00
64713;BME280;51140;45.340;5.980;2023-04-09T07:05:56;98142.31;;;5.51;100.00
64713;BME280;51140;45.340;5.980;2023-04-09T07:08:22;98147.38;;;5.54;100.00
64713;BME280;51140;45.340;5.980;2023-04-09T07:10:47;98145.81;;;5.49;100.00
64713;BME280;51140;45.340;5.980;2023-04-09T07:13:13;98143.78;;;5.58;100.00
64713;BME280;51140;45.340;5.980;2023-04-09T07:15:38;98156.44;;;5.68;100.00
64713;BME280;51140;45.340;5.980;2023-04-09T07:18:04;98153.66;;;5.74;100.00
64713;BME280;51140;45.340;5.980;2023-04-09T07:20:30;98149.53;;;5.68;100.00
64713;BME280;51140;45.340;5.980;2023-04-09T07:22:55;98152.56;;;5.81;100.00
64713;BME280;51140;45.340;5.980;2023-04-09T07:25:20;98142.06;;;5.85;100.00
64713;BME280;51140;45.340;5.980;2023-04-09T07:27:46;98140.94;;;5.94;100.00
64713;BME280;51140;45.340;5.980;2023-04-09T07:30:11;98137.47;;;5.95;100.00
64713;BME280;51140;45.340;5.980;2023-04-09T07:32:37;98149.13;;;6.08;100.00
64713;BME280;51140;45.340;5.980;2023-04-09T07:35:06;98148.84;;;6.16;100.00
64713;BME280;51140;45.340;5.980;2023-04-09T07:37:32;98146.06;;;6.22;100.00
64713;BME280;51140;45.340;5.980;2023-04-09T07:39:57;98139.75;;;6.29;100.00
64713;BME280;51140;45.340;5.980;2023-04-09T07:42:23;98138.03;;;6.54;100.00
64713;BME280;51140;45.340;5.980;2023-04-09T07:44:48;98155.78;;;6.88;100.00
64713;BME280;51140;45.340;5.980;2023-04-09T07:47:14;98177.91;;;6.72;100.00
64713;BME280;51140;45.340;5.980;2023-04-09T07:49:39;98186.63;;;6.95;100.00
64713;BME280;51140;45.340;5.980;2023-04-09T07:52:05;98206.56;;;6.93;100.00
64713;BME280;51140;45.340;5.980;2023-04-09T07:54:31;98218.88;;;6.86;100.00
64713;BME280;51140;45.340;5.980;2023-04-09T07:56:57;98231.81;;;7.09;100.00
64713;BME280;51140;45.340;5.980;2023-04-09T07:59:23;98258.47;;;7.36;100.00
64713;BME280;51140;45.340;5.980;2023-04-09T08:01:48;98284.72;;;7.96;100.00
64713;BME280;51140;45.340;5.980;2023-04-09T08:04:14;98304.63;;;7.95;100.00
64713;BME280;51140;45.340;5.980;2023-04-09T08:06:40;98326.91;;;8.88;100.00
64713;BME280;51140;45.340;5.980;2023-04-09T08:09:05;98364.22;;;9.47;100.00
64713;BME280;51140;45.340;5.980;2023-04-09T08:11:31;98426.56;;;10.08;100.00
64713;BME280;51140;45.340;5.980;2023-04-09T08:13:56;98468.00;;;11.41;100.00
64713;BME280;51140;45.340;5.980;2023-04-09T08:16:22;98522.06;;;14.54;100.00
64713;BME280;51140;45.340;5.980;2023-04-09T08:18:52;98574.78;;;15.99;100.00
64713;BME280;51140;45.340;5.980;2023-04-09T08:21:17;98532.72;;;21.57;100.00
64713;BME280;51140;45.340;5.980;2023-04-09T08:23:43;98529.41;;;24.65;100.00
64713;BME280;51140;45.340;5.980;2023-04-09T08:26:08;98537.94;;;23.63;100.00
64713;BME280;51140;45.340;5.980;2023-04-09T08:28:33;98526.81;;;23.50;100.00
64713;BME280;51140;45.340;5.980;2023-04-09T08:30:59;98477.16;;;27.00;100.00
64713;BME280;51140;45.340;5.980;2023-04-09T08:33:24;98444.06;;;28.81;100.00
64713;BME280;51140;45.340;5.980;2023-04-09T08:35:50;98411.25;;;31.50;100.00
64713;BME280;51140;45.340;5.980;2023-04-09T08:38:17;98401.88;;;32.45;97.53
64713;BME280;51140;45.340;5.980;2023-04-09T08:40:42;98409.28;;;33.08;96.74
64713;BME280;51140;45.340;5.980;2023-04-09T08:43:09;98365.09;;;36.00;87.72
64713;BME280;51140;45.340;5.980;2023-04-09T08:45:40;98369.03;;;36.56;84.04
64713;BME280;51140;45.340;5.980;2023-04-09T08:48:08;98355.84;;;37.50;79.27
64713;BME280;51140;45.340;5.980;2023-04-09T08:50:34;98359.09;;;37.80;71.74
64713;BME280;51140;45.340;5.980;2023-04-09T08:53:04;98347.53;;;37.90;68.91
64713;BME280;51140;45.340;5.980;2023-04-09T08:55:31;98344.75;;;37.68;65.08
64713;BME280;51140;45.340;5.980;2023-04-09T08:57:59;98342.69;;;38.14;66.71
64713;BME280;51140;45.340;5.980;2023-04-09T09:00:25;98342.94;;;39.00;65.10
64713;BME280;51140;45.340;5.980;2023-04-09T09:03:08;98317.22;;;39.87;54.76
64713;BME280;51140;45.340;5.980;2023-04-09T09:08:00;98324.84;;;39.90;55.37
64713;BME280;51140;45.340;5.980;2023-04-09T09:10:39;98317.31;;;40.59;50.40
64713;BME280;51140;45.340;5.980;2023-04-09T09:13:26;98331.38;;;39.14;54.13
64713;BME280;51140;45.340;5.980;2023-04-09T09:15:53;98311.00;;;40.44;52.34
64713;BME280;51140;45.340;5.980;2023-04-09T09:18:36;98297.78;;;41.23;46.39
64713;BME280;51140;45.340;5.980;2023-04-09T09:21:12;98293.91;;;40.99;44.25
64713;BME280;51140;45.340;5.980;2023-04-09T09:23:38;98328.97;;;38.91;52.05
64713;BME280;51140;45.340;5.980;2023-04-09T09:26:15;98314.97;;;39.78;47.43
64713;BME280;51140;45.340;5.980;2023-04-09T09:28:41;98316.56;;;39.69;52.15
64713;BME280;51140;45.340;5.980;2023-04-09T09:31:10;98305.28;;;39.56;49.56
64713;BME280;51140;45.340;5.980;2023-04-09T09:33:36;98335.25;;;37.87;53.45
64713;BME280;51140;45.340;5.980;2023-04-09T09:36:02;98299.09;;;39.65;44.56
64713;BME280;51140;45.340;5.980;2023-04-09T09:38:29;98319.63;;;38.60;46.19
64713;BME280;51140;45.340;5.980;2023-04-09T09:40:55;98317.41;;;38.35;45.15
64713;BME280;51140;45.340;5.980;2023-04-09T09:43:20;98321.09;;;38.24;47.68
64713;BME280;51140;45.340;5.980;2023-04-09T09:45:46;98330.69;;;36.92;53.39
64713;BME280;51140;45.340;5.980;2023-04-09T09:48:14;98299.88;;;38.70;46.92
64713;BME280;51140;45.340;5.980;2023-04-09T09:50:40;98299.53;;;39.20;49.57
64713;BME280;51140;45.340;5.980;2023-04-09T09:53:07;98315.41;;;37.53;48.31
64713;BME280;51140;45.340;5.980;2023-04-09T09:55:47;98331.00;;;36.67;50.24
64713;BME280;51140;45.340;5.980;2023-04-09T09:58:22;98307.88;;;37.39;50.90
64713;BME280;51140;45.340;5.980;2023-04-09T10:00:50;98319.09;;;36.97;58.83
64713;BME280;51140;45.340;5.980;2023-04-09T10:03:22;98311.31;;;37.51;56.80
64713;BME280;51140;45.340;5.980;2023-04-09T10:05:49;98331.63;;;36.06;51.98
64713;BME280;51140;45.340;5.980;2023-04-09T10:08:15;98310.94;;;36.97;51.01
64713;BME280;51140;45.340;5.980;2023-04-09T10:10:41;98315.19;;;36.64;49.73
64713;BME280;51140;45.340;5.980;2023-04-09T10:13:19;98335.38;;;35.35;56.39
64713;BME280;51140;45.340;5.980;2023-04-09T10:15:46;98337.50;;;35.03;56.85
64713;BME280;51140;45.340;5.980;2023-04-09T10:18:13;98320.66;;;35.66;52.94
64713;BME280;51140;45.340;5.980;2023-04-09T10:20:42;98331.16;;;35.09;50.01
64713;BME280;51140;45.340;5.980;2023-04-09T10:23:21;98316.88;;;35.43;50.39
64713;BME280;51140;45.340;5.980;2023-04-09T10:25:48;98305.56;;;35.35;47.06
64713;BME280;51140;45.340;5.980;2023-04-09T10:28:17;98323.88;;;35.21;52.83
64713;BME280;51140;45.340;5.980;2023-04-09T10:30:43;98329.72;;;33.91;54.13
64713;BME280;51140;45.340;5.980;2023-04-09T10:35:34;98339.25;;;32.88;64.01
64713;BME280;51140;45.340;5.980;2023-04-09T10:38:00;98342.44;;;32.65;68.48
64713;BME280;51140;45.340;5.980;2023-04-09T10:40:27;98354.69;;;32.03;68.79
64713;BME280;51140;45.340;5.980;2023-04-09T10:42:53;98341.66;;;31.87;66.39
64713;BME280;51140;45.340;5.980;2023-04-09T10:45:20;98340.63;;;31.88;69.76
64713;BME280;51140;45.340;5.980;2023-04-09T10:47:48;98345.53;;;31.05;70.71
64713;BME280;51140;45.340;5.980;2023-04-09T10:50:23;98348.69;;;30.06;68.33
64713;BME280;51140;45.340;5.980;2023-04-09T10:52:54;98391.66;;;28.42;78.42
64713;BME280;51140;45.340;5.980;2023-04-09T10:55:37;98377.19;;;27.46;72.35
64713;BME280;51140;45.340;5.980;2023-04-09T10:58:04;98385.19;;;26.47;76.70
64713;BME280;51140;45.340;5.980;2023-04-09T11:00:36;98414.56;;;25.75;87.27
64713;BME280;51140;45.340;5.980;2023-04-09T11:08:07;98398.72;;;24.75;90.39
64713;BME280;51140;45.340;5.980;2023-04-09T11:10:41;98416.09;;;23.85;87.38
64713;BME280;51140;45.340;5.980;2023-04-09T11:13:15;98427.59;;;22.96;92.14
64713;BME280;51140;45.340;5.980;2023-04-09T11:15:42;98439.22;;;22.31;96.81
64713;BME280;51140;45.340;5.980;2023-04-09T11:18:08;98426.41;;;22.54;99.51
64713;BME280;51140;45.340;5.980;2023-04-09T11:20:38;98442.72;;;21.65;100.00
64713;BME280;51140;45.340;5.980;2023-04-09T11:23:04;98432.16;;;21.26;100.00
64713;BME280;51140;45.340;5.980;2023-04-09T11:25:31;98426.59;;;20.70;98.59
64713;BME280;51140;45.340;5.980;2023-04-09T11:27:57;98438.97;;;20.60;100.00
64713;BME280;51140;45.340;5.980;2023-04-09T11:30:22;98448.63;;;20.10;100.00
64713;BME280;51140;45.340;5.980;2023-04-09T11:32:49;98428.56;;;20.07;100.00
64713;BME280;51140;45.340;5.980;2023-04-09T11:35:16;98437.16;;;19.79;100.00
64713;BME280;51140;45.340;5.980;2023-04-09T11:37:43;98438.97;;;19.78;100.00
64713;BME280;51140;45.340;5.980;2023-04-09T11:40:15;98446.53;;;19.51;100.00
64713;BME280;51140;45.340;5.980;2023-04-09T11:42:42;98432.59;;;19.28;100.00
64713;BME280;51140;45.340;5.980;2023-04-09T11:45:09;98444.28;;;18.82;100.00
64713;BME280;51140;45.340;5.980;2023-04-09T11:47:35;98443.78;;;18.88;100.00
64713;BME280;51140;45.340;5.980;2023-04-09T11:50:01;98445.66;;;18.97;100.00
64713;BME280;51140;45.340;5.980;2023-04-09T11:52:27;98431.59;;;19.08;100.00
64713;BME280;51140;45.340;5.980;2023-04-09T11:54:58;98431.22;;;19.13;100.00
64713;BME280;51140;45.340;5.980;2023-04-09T11:57:41;98424.16;;;19.02;100.00
64713;BME280;51140;45.340;5.980;2023-04-09T12:00:08;98416.38;;;19.00;100.00
64713;BME280;51140;45.340;5.980;2023-04-09T12:02:40;98415.53;;;19.00;100.00
64713;BME280;51140;45.340;5.980;2023-04-09T12:05:08;98415.00;;;18.85;100.00
64713;BME280;51140;45.340;5.980;2023-04-09T12:07:33;98411.78;;;18.82;100.00
64713;BME280;51140;45.340;5.980;2023-04-09T12:10:06;98405.69;;;18.47;100.00
64713;BME280;51140;45.340;5.980;2023-04-09T12:12:45;98417.41;;;18.55;100.00
64713;BME280;51140;45.340;5.980;2023-04-09T12:17:37;98405.94;;;18.44;100.00
64713;BME280;51140;45.340;5.980;2023-04-09T12:20:03;98404.72;;;18.48;100.00
64713;BME280;51140;45.340;5.980;2023-04-09T12:22:29;98402.31;;;18.57;100.00
64713;BME280;51140;45.340;5.980;2023-04-09T12:24:54;98399.41;;;18.60;100.00
64713;BME280;51140;45.340;5.980;2023-04-09T12:27:20;98394.50;;;18.55;100.00
64713;BME280;51140;45.340;5.980;2023-04-09T12:29:45;98404.34;;;18.64;100.00
64713;BME280;51140;45.340;5.980;2023-04-09T12:32:10;98389.25;;;18.66;100.00
64713;BME280;51140;45.340;5.980;2023-04-09T12:34:36;98382.22;;;18.88;100.00
64713;BME280;51140;45.340;5.980;2023-04-09T12:37:01;98383.78;;;18.79;100.00
64713;BME280;51140;45.340;5.980;2023-04-09T12:39:27;98376.69;;;18.91;100.00
64713;BME280;51140;45.340;5.980;2023-04-09T12:41:52;98379.66;;;18.65;100.00
64713;BME280;51140;45.340;5.980;2023-04-09T12:44:18;98378.84;;;18.31;100.00
64713;BME280;51140;45.340;5.980;2023-04-09T12:46:43;98371.97;;;18.51;100.00
64713;BME280;51140;45.340;5.980;2023-04-09T12:49:09;98382.75;;;18.82;100.00
64713;BME280;51140;45.340;5.980;2023-04-09T12:51:34;98366.22;;;18.57;100.00
64713;BME280;51140;45.340;5.980;2023-04-09T12:54:00;98364.81;;;18.42;100.00
64713;BME280;51140;45.340;5.980;2023-04-09T12:56:28;98354.22;;;18.53;100.00
64713;BME280;51140;45.340;5.980;2023-04-09T12:58:53;98376.53;;;18.49;100.00
64713;BME280;51140;45.340;5.980;2023-04-09T13:01:18;98361.75;;;18.69;100.00
64713;BME280;51140;45.340;5.980;2023-04-09T13:03:44;98355.81;;;18.44;100.00
64713;BME280;51140;45.340;5.980;2023-04-09T13:06:09;98366.78;;;18.06;100.00
64713;BME280;51140;45.340;5.980;2023-04-09T13:08:34;98362.84;;;18.55;100.00
64713;BME280;51140;45.340;5.980;2023-04-09T13:11:00;98362.41;;;18.93;100.00
64713;BME280;51140;45.340;5.980;2023-04-09T13:13:25;98343.88;;;18.72;100.00
64713;BME280;51140;45.340;5.980;2023-04-09T13:15:52;98354.41;;;18.84;100.00
64713;BME280;51140;45.340;5.980;2023-04-09T13:18:18;98353.91;;;18.90;100.00
64713;BME280;51140;45.340;5.980;2023-04-09T13:20:43;98350.13;;;19.03;100.00